Time;durP1;ratioP1;P1;durP2;ratioP2;P2;SDS_P1;SDS_P2;PMS_P1;PMS_P2;Temp;Humidity;BMP_temperature;BMP_pressure;BME280_temperature;BME280_humidity;BME280_pressure;Samples;Min_cycle;Max_cycle;Signal;HPM_P1;HPM_P2
2021/04/05 00:01:17;;;;;;;39.95;21.38;;;5.80;74.30;;;;;;5113869;28;20016;-35
2021/04/05 00:03:43;;;;;;;40.63;22.75;;;5.80;74.50;;;;;;5114390;28;20478;-37
2021/04/05 00:06:09;;;;;;;37.65;21.08;;;5.80;74.40;;;;;;5114099;28;20024;-35
2021/04/05 00:08:34;;;;;;;38.47;21.15;;;5.80;74.40;;;;;;5113952;28;20051;-35
2021/04/05 00:11:00;;;;;;;34.08;20.77;;;5.70;74.50;;;;;;5114136;28;20102;-37
2021/04/05 00:13:29;;;;;;;35.42;20.48;;;5.70;74.80;;;;;;5114035;28;20027;-36
2021/04/05 00:15:55;;;;;;;41.08;20.83;;;5.80;74.60;;;;;;5113649;28;20028;-35
2021/04/05 00:18:23;;;;;;;36.50;21.30;;;5.80;74.30;;;;;;5113908;28;20096;-36
2021/04/05 00:20:52;;;;;;;42.22;21.40;;;5.80;74.60;;;;;;5112108;28;20023;-36
2021/04/05 00:23:18;;;;;;;39.83;19.95;;;5.80;74.80;;;;;;5113929;28;20478;-37
2021/04/05 00:25:43;;;;;;;36.50;19.63;;;5.70;74.90;;;;;;5113835;28;20455;-36
2021/04/05 00:28:09;;;;;;;30.30;19.08;;;5.70;75.10;;;;;;5113572;28;20035;-36
2021/04/05 00:30:36;;;;;;;32.13;16.13;;;5.70;75.20;;;;;;5113719;28;20032;-36
2021/04/05 00:33:03;;;;;;;39.08;19.38;;;5.70;75.20;;;;;;5113598;28;20035;-36
2021/04/05 00:35:31;;;;;;;36.22;20.73;;;5.70;75.30;;;;;;5113506;28;20036;-35
2021/04/05 00:37:58;;;;;;;38.40;20.50;;;5.70;75.10;;;;;;5114230;28;20016;-35
2021/04/05 00:40:32;;;;;;;39.13;19.50;;;5.70;75.10;;;;;;5113602;28;20387;-37
2021/04/05 00:42:59;;;;;;;40.03;20.33;;;5.70;75.00;;;;;;5113692;28;20479;-36
2021/04/05 00:45:25;;;;;;;32.92;18.65;;;5.80;75.00;;;;;;5113553;28;20112;-36
2021/04/05 00:47:53;;;;;;;30.50;16.30;;;5.80;75.00;;;;;;5113359;28;20073;-36
2021/04/05 00:50:26;;;;;;;35.22;19.50;;;5.80;74.80;;;;;;5113778;28;20421;-36
2021/04/05 00:52:52;;;;;;;38.15;20.20;;;5.80;74.90;;;;;;5113796;28;20035;-36
2021/04/05 00:55:19;;;;;;;35.72;21.17;;;5.80;74.70;;;;;;5111995;28;20019;-36
2021/04/05 00:57:46;;;;;;;29.70;16.55;;;5.80;74.90;;;;;;5113933;28;20107;-37
2021/04/05 01:00:20;;;;;;;34.92;17.95;;;5.80;74.90;;;;;;5111975;28;20055;-35
2021/04/05 01:02:47;;;;;;;26.00;14.13;;;5.80;74.80;;;;;;5113369;28;20102;-37
2021/04/05 01:05:13;;;;;;;35.95;18.67;;;5.80;74.70;;;;;;5113187;28;20039;-36
2021/04/05 01:07:40;;;;;;;30.77;17.80;;;5.80;74.90;;;;;;5113150;28;20027;-37
2021/04/05 01:10:09;;;;;;;39.08;20.77;;;5.70;75.00;;;;;;5113184;28;20020;-37
2021/04/05 01:12:35;;;;;;;33.05;19.50;;;5.70;75.00;;;;;;5111881;28;20340;-37
2021/04/05 01:15:01;;;;;;;42.13;20.63;;;5.70;75.00;;;;;;5111851;28;20026;-36
2021/04/05 01:17:26;;;;;;;30.45;14.98;;;5.70;75.00;;;;;;5111741;28;20023;-35
2021/04/05 01:19:52;;;;;;;34.67;18.85;;;5.80;75.10;;;;;;5111876;28;20498;-38
2021/04/05 01:22:18;;;;;;;41.03;18.52;;;5.70;75.30;;;;;;5113057;28;20024;-36
2021/04/05 01:24:43;;;;;;;33.45;17.52;;;5.80;75.20;;;;;;5113378;28;20443;-36
2021/04/05 01:27:09;;;;;;;36.75;18.95;;;5.70;75.40;;;;;;5112917;28;20100;-36
2021/04/05 01:29:37;;;;;;;33.25;17.25;;;5.70;75.40;;;;;;5111932;28;20383;-36
2021/04/05 01:32:03;;;;;;;40.50;19.95;;;5.70;75.60;;;;;;5116336;28;20088;-36
2021/04/05 01:34:28;;;;;;;33.00;17.88;;;5.70;75.60;;;;;;5117338;27;20491;-36
2021/04/05 01:36:59;;;;;;;41.90;18.58;;;5.70;75.80;;;;;;5116926;28;20027;-39
2021/04/05 01:39:25;;;;;;;;;;;5.60;75.90;;;;;;5117837;28;20027;-36
2021/04/05 01:41:51;;;;;;;38.20;18.40;;;5.60;76.00;;;;;;5116904;28;19907;-36
2021/04/05 01:44:17;;;;;;;34.75;17.17;;;5.70;75.80;;;;;;5116575;27;20035;-35
2021/04/05 01:46:43;;;;;;;35.90;18.27;;;5.60;76.00;;;;;;5115322;28;20479;-35
2021/04/05 01:49:09;;;;;;;35.72;16.80;;;5.60;76.10;;;;;;5116422;28;20074;-35
2021/04/05 01:51:35;;;;;;;39.80;20.15;;;5.60;76.20;;;;;;5116575;28;20023;-35
2021/04/05 01:54:01;;;;;;;33.63;19.45;;;5.60;76.40;;;;;;5116500;28;20494;-35
2021/04/05 01:56:26;;;;;;;32.35;16.75;;;5.60;76.30;;;;;;5116378;28;20106;-35
2021/04/05 01:58:54;;;;;;;39.10;15.98;;;5.60;76.40;;;;;;5116367;28;20019;-36
2021/04/05 02:01:26;;;;;;;30.70;17.77;;;5.60;76.60;;;;;;5115106;28;20471;-35
2021/04/05 02:03:54;;;;;;;35.97;18.02;;;5.60;76.60;;;;;;5115213;28;20106;-36
2021/04/05 02:06:24;;;;;;;38.35;18.65;;;5.60;76.70;;;;;;5116253;28;20043;-36
2021/04/05 02:08:51;;;;;;;39.55;21.50;;;5.50;76.80;;;;;;5116222;28;20063;-36
2021/04/05 02:11:25;;;;;;;34.78;17.98;;;5.50;77.00;;;;;;5116865;27;20050;-36
2021/04/05 02:13:54;;;;;;;50.25;20.73;;;5.60;77.00;;;;;;5116393;28;20028;-36
2021/04/05 02:16:22;;;;;;;46.97;20.15;;;5.50;77.10;;;;;;5115994;28;20055;-36
2021/04/05 02:18:49;;;;;;;32.53;19.35;;;5.50;77.20;;;;;;5116316;28;20026;-37
2021/04/05 02:21:16;;;;;;;40.70;19.92;;;5.50;77.10;;;;;;5115923;28;20057;-36
2021/04/05 02:23:43;;;;;;;33.13;15.93;;;5.50;77.00;;;;;;5116082;28;20019;-36
2021/04/05 02:26:11;;;;;;;38.90;18.98;;;5.50;77.30;;;;;;5114429;28;20027;-36
2021/04/05 02:28:47;;;;;;;38.22;17.92;;;5.60;77.20;;;;;;5114364;28;20024;-36
2021/04/05 02:31:15;;;;;;;38.08;21.27;;;5.60;77.20;;;;;;5115707;28;20032;-35
2021/04/05 02:33:44;;;;;;;36.80;16.90;;;5.50;77.20;;;;;;5116371;28;20099;-35
2021/04/05 02:36:12;;;;;;;41.28;18.10;;;5.60;77.20;;;;;;5116047;27;20436;-35
2021/04/05 02:38:45;;;;;;;44.60;19.50;;;5.60;77.30;;;;;;5115996;28;20043;-35
2021/04/05 02:41:13;;;;;;;32.75;18.15;;;5.60;77.20;;;;;;5116103;28;20108;-35
2021/04/05 02:43:40;;;;;;;37.83;19.35;;;5.60;77.10;;;;;;5114916;28;20371;-35
2021/04/05 02:46:10;;;;;;;38.97;17.75;;;5.70;76.90;;;;;;5115713;28;20081;-36
2021/04/05 02:48:39;;;;;;;30.05;15.55;;;5.70;77.00;;;;;;5115528;28;20048;-36
2021/04/05 02:51:07;;;;;;;32.97;17.85;;;5.70;76.80;;;;;;5115535;28;20035;-36
2021/04/05 02:53:35;;;;;;;39.00;18.90;;;5.80;76.60;;;;;;5115488;28;20488;-35
2021/04/05 02:56:03;;;;;;;31.73;17.67;;;5.80;76.70;;;;;;5115444;28;20034;-35
2021/04/05 02:58:31;;;;;;;35.25;17.38;;;5.80;76.50;;;;;;5115642;28;20027;-35
2021/04/05 03:00:57;;;;;;;33.08;16.23;;;6.00;76.10;;;;;;5115418;28;20085;-35
2021/04/05 03:03:23;;;;;;;39.33;18.80;;;6.10;75.90;;;;;;5114715;28;20036;-35
2021/04/05 03:05:50;;;;;;;31.45;16.23;;;6.00;76.00;;;;;;5114034;28;20107;-35
2021/04/05 03:08:17;;;;;;;35.60;16.58;;;6.00;76.00;;;;;;5115531;28;20023;-35
2021/04/05 03:10:42;;;;;;;37.58;16.77;;;6.00;75.80;;;;;;5115473;28;20388;-35
2021/04/05 03:13:10;;;;;;;46.33;19.50;;;6.00;76.00;;;;;;5113931;28;20019;-35
2021/04/05 03:15:36;;;;;;;42.35;17.52;;;6.10;75.80;;;;;;5115107;28;20484;-35
2021/04/05 03:18:05;;;;;;;38.47;19.45;;;6.10;75.60;;;;;;5115056;28;20107;-35
2021/04/05 03:20:34;;;;;;;38.53;18.30;;;6.10;75.50;;;;;;5115069;28;20034;-35
2021/04/05 03:23:01;;;;;;;36.80;17.50;;;6.30;75.10;;;;;;5114915;28;20020;-35
2021/04/05 03:25:27;;;;;;;30.15;15.90;;;6.20;75.40;;;;;;5113729;28;20039;-35
2021/04/05 03:27:54;;;;;;;38.78;17.85;;;6.30;75.20;;;;;;5113826;28;20020;-37
2021/04/05 03:30:28;;;;;;;34.72;17.42;;;6.20;75.40;;;;;;5115162;28;20030;-35
2021/04/05 03:33:23;;;;;;;35.33;17.45;;;6.20;75.50;;;;;;5113523;28;20024;-35
2021/04/05 03:35:55;;;;;;;29.83;15.68;;;6.20;75.60;;;;;;5110683;28;20045;-35
2021/04/05 03:38:22;;;;;;;37.13;18.00;;;6.30;75.40;;;;;;5114786;28;20077;-35
2021/04/05 03:40:48;;;;;;;41.58;19.55;;;6.30;75.70;;;;;;5113261;28;20024;-36
2021/04/05 03:43:55;;;;;;;41.63;17.27;;;6.20;75.70;;;;;;5114234;28;20512;-35
2021/04/05 03:46:27;;;;;;;30.45;15.38;;;6.30;75.60;;;;;;5092416;28;20032;-35
2021/04/05 03:49:17;;;;;;;35.38;19.00;;;6.30;75.70;;;;;;5112963;28;20040;-35
2021/04/05 03:51:50;;;;;;;30.27;17.45;;;6.30;75.80;;;;;;5114050;28;20027;-35
2021/04/05 03:54:20;;;;;;;32.60;14.82;;;6.40;76.00;;;;;;5113999;28;20473;-35
2021/04/05 03:56:51;;;;;;;31.05;16.92;;;6.40;76.00;;;;;;5114518;28;20026;-35
2021/04/05 03:59:33;;;;;;;28.75;14.13;;;6.40;75.90;;;;;;5114137;28;20025;-35
2021/04/05 04:02:05;;;;;;;42.25;17.70;;;6.40;76.00;;;;;;5114117;28;20472;-35
2021/04/05 04:07:18;;;;;;;36.13;16.80;;;6.60;76.00;;;;;;5114008;28;20479;-35
2021/04/05 04:09:45;;;;;;;51.03;18.63;;;6.50;76.50;;;;;;5114258;28;20035;-35
2021/04/05 04:12:14;;;;;;;36.42;18.20;;;6.60;76.40;;;;;;5113887;28;20088;-36
2021/04/05 04:14:41;;;;;;;41.58;18.00;;;6.60;76.60;;;;;;5114216;28;20063;-36
2021/04/05 04:17:09;;;;;;;42.95;17.55;;;6.70;76.60;;;;;;5113916;28;20024;-35
2021/04/05 04:19:38;;;;;;;35.47;17.15;;;6.70;76.70;;;;;;5114056;28;20027;-37
2021/04/05 04:22:06;;;;;;;33.53;16.55;;;6.70;76.60;;;;;;5095767;28;20382;-37
2021/04/05 04:24:35;;;;;;;41.45;18.80;;;6.70;76.80;;;;;;5113965;28;20027;-36
2021/04/05 04:27:01;;;;;;;37.20;18.88;;;6.70;76.80;;;;;;5113880;28;20035;-36
2021/04/05 04:29:28;;;;;;;35.50;15.88;;;6.80;76.60;;;;;;5114290;28;20540;-36
2021/04/05 04:31:54;;;;;;;39.85;18.23;;;6.70;76.90;;;;;;5113744;28;20023;-36
2021/04/05 04:34:22;;;;;;;41.47;18.75;;;6.70;76.80;;;;;;5113977;28;20069;-36
2021/04/05 04:36:49;;;;;;;37.45;16.75;;;6.70;77.00;;;;;;5095678;28;20028;-37
2021/04/05 04:39:16;;;;;;;33.35;16.80;;;6.70;77.10;;;;;;5113695;28;20035;-36
2021/04/05 04:41:44;;;;;;;41.10;19.08;;;6.70;77.20;;;;;;5113705;28;20106;-35
2021/04/05 04:44:11;;;;;;;36.38;17.92;;;6.70;77.50;;;;;;5113982;28;20019;-36
2021/04/05 04:46:37;;;;;;;33.22;15.85;;;6.70;77.40;;;;;;5113699;28;20390;-37
2021/04/05 04:49:05;;;;;;;49.95;20.73;;;6.60;77.60;;;;;;5113572;28;20054;-37
2021/04/05 04:51:31;;;;;;;38.72;16.90;;;6.60;77.80;;;;;;5113607;28;20084;-37
2021/04/05 04:53:58;;;;;;;33.15;16.42;;;6.70;77.80;;;;;;5113839;28;20063;-41
2021/04/05 04:56:25;;;;;;;45.42;16.77;;;6.60;77.90;;;;;;5113385;28;20020;-35
2021/04/05 04:58:51;;;;;;;39.75;19.30;;;6.50;78.20;;;;;;5113753;28;20035;-35
2021/04/05 05:01:18;;;;;;;46.25;20.20;;;6.60;78.30;;;;;;5113775;28;20399;-36
2021/04/05 05:03:56;;;;;;;35.53;18.95;;;6.60;78.30;;;;;;5113671;28;20452;-35
2021/04/05 05:06:24;;;;;;;36.83;17.02;;;6.60;78.40;;;;;;5116141;28;20471;-35
2021/04/05 05:08:50;;;;;;;48.53;24.33;;;6.60;78.40;;;;;;5117423;28;20472;-35
2021/04/05 05:11:16;;;;;;;44.60;20.50;;;6.50;78.80;;;;;;5117373;28;20108;-36
2021/04/05 05:13:42;;;;;;;39.85;21.17;;;6.60;78.50;;;;;;5117296;28;20059;-36
2021/04/05 05:16:11;;;;;;;46.55;19.95;;;6.60;78.70;;;;;;5117233;28;20108;-36
2021/04/05 05:18:38;;;;;;;37.88;17.77;;;6.50;79.00;;;;;;5117210;28;20383;-36
2021/04/05 05:21:13;;;;;;;50.10;21.05;;;6.50;79.30;;;;;;5117098;28;20015;-35
2021/04/05 05:23:42;;;;;;;40.42;19.52;;;6.50;79.20;;;;;;5117157;28;20024;-36
2021/04/05 05:26:11;;;;;;;41.47;19.58;;;6.50;79.30;;;;;;5117239;28;20371;-36
2021/04/05 05:28:38;;;;;;;41.67;19.77;;;6.50;79.60;;;;;;5117043;28;20073;-35
2021/04/05 05:31:05;;;;;;;38.03;18.85;;;6.50;79.40;;;;;;5116915;27;20023;-35
2021/04/05 05:33:31;;;;;;;38.22;20.35;;;6.60;79.30;;;;;;5116848;28;20081;-35
2021/04/05 05:35:58;;;;;;;49.13;20.85;;;6.50;79.70;;;;;;5117034;28;20063;-35
2021/04/05 05:38:24;;;;;;;43.83;20.35;;;6.50;79.60;;;;;;5117058;28;20024;-35
2021/04/05 05:40:53;;;;;;;39.15;18.63;;;6.50;79.80;;;;;;5115521;28;20092;-35
2021/04/05 05:43:31;;;;;;;48.58;20.73;;;6.50;79.80;;;;;;5116979;28;20111;-35
2021/04/05 05:46:16;;;;;;;40.33;17.63;;;6.50;80.00;;;;;;5117018;28;20035;-35
2021/04/05 05:49:14;;;;;;;39.63;17.73;;;6.60;79.90;;;;;;5116525;28;20063;-35
2021/04/05 05:51:45;;;;;;;44.58;20.45;;;6.50;80.20;;;;;;5115340;28;20035;-35
2021/04/05 05:54:38;;;;;;;40.90;16.30;;;6.50;80.40;;;;;;5116557;28;20577;-35
2021/04/05 05:57:15;;;;;;;34.53;19.25;;;6.60;80.50;;;;;;5115037;28;20489;-35
2021/04/05 06:00:28;;;;;;;37.05;19.05;;;6.60;80.70;;;;;;5116719;28;20371;-35
2021/04/05 06:03:03;;;;;;;35.88;19.35;;;6.60;80.90;;;;;;5111099;28;20157;-36
2021/04/05 06:05:50;;;;;;;34.17;18.42;;;6.60;81.50;;;;;;5116238;28;20158;-36
2021/04/05 06:08:53;;;;;;;47.58;21.58;;;6.60;82.00;;;;;;5116339;28;20027;-36
2021/04/05 06:11:42;;;;;;;43.22;18.55;;;6.60;82.50;;;;;;5114727;28;20055;-35
2021/04/05 06:14:35;;;;;;;36.20;21.50;;;6.60;82.60;;;;;;5114516;28;20119;-35
2021/04/05 06:17:21;;;;;;;45.28;19.90;;;6.60;82.80;;;;;;5114527;28;20027;-35
2021/04/05 06:20:42;;;;;;;38.97;18.25;;;6.60;83.00;;;;;;5116238;28;20020;-35
2021/04/05 06:23:11;;;;;;;44.53;18.52;;;6.60;83.40;;;;;;5035894;28;20029;-36
2021/04/05 06:26:00;;;;;;;76.22;23.33;;;6.60;83.10;;;;;;5116169;28;20018;-36
2021/04/05 06:28:34;;;;;;;43.42;22.58;;;6.70;82.90;;;;;;5114642;28;20030;-35
2021/04/05 06:31:03;;;;;;;42.45;20.58;;;6.70;82.90;;;;;;5116303;28;20023;-36
2021/04/05 06:33:36;;;;;;;47.83;21.67;;;6.60;83.10;;;;;;5115733;28;20020;-34
2021/04/05 06:36:37;;;;;;;53.15;23.08;;;6.60;82.90;;;;;;5115619;28;20023;-35
2021/04/05 06:39:19;;;;;;;51.50;22.23;;;6.70;82.80;;;;;;5116017;28;20463;-41
2021/04/05 06:41:56;;;;;;;51.78;22.58;;;6.60;83.40;;;;;;5115913;28;20055;-37
2021/04/05 06:44:53;;;;;;;41.50;21.80;;;6.60;83.10;;;;;;5115518;28;20356;-36
2021/04/05 06:47:40;;;;;;;39.78;20.80;;;6.70;83.20;;;;;;5115314;28;20088;-36
2021/04/05 06:50:17;;;;;;;41.00;20.95;;;6.60;83.60;;;;;;5115625;28;20074;-36
2021/04/05 06:52:49;;;;;;;42.90;23.13;;;6.60;83.30;;;;;;5115489;28;20027;-36
2021/04/05 06:55:14;;;;;;;44.65;22.45;;;6.60;83.20;;;;;;5115788;27;20030;-37
2021/04/05 06:57:49;;;;;;;43.00;22.80;;;6.70;83.30;;;;;;5115532;28;20098;-36
2021/04/05 07:00:52;;;;;;;51.47;24.50;;;6.80;83.00;;;;;;5116324;28;20023;-36
2021/04/05 07:03:58;;;;;;;37.60;23.50;;;6.80;83.20;;;;;;5115506;28;20027;-35
2021/04/05 07:06:39;;;;;;;39.67;24.77;;;6.80;83.30;;;;;;5115141;28;20118;-36
2021/04/05 07:09:19;;;;;;;;;;;6.80;83.20;;;;;;5115408;28;20020;-36
2021/04/05 07:12:00;;;;;;;42.20;21.60;;;6.80;83.90;;;;;;5115096;28;19911;-36
2021/04/05 07:14:47;;;;;;;51.07;23.07;;;6.80;84.40;;;;;;5113684;28;20042;-36
2021/04/05 07:17:34;;;;;;;51.90;25.25;;;6.80;85.00;;;;;;5115307;28;20291;-38
2021/04/05 07:20:07;;;;;;;44.80;22.83;;;6.80;85.40;;;;;;5114936;28;20124;-36
2021/04/05 07:22:56;;;;;;;51.83;22.38;;;6.70;86.20;;;;;;5115202;28;20038;-37
2021/04/05 07:25:35;;;;;;;11.45;3.83;;;6.80;86.80;;;;;;5115274;28;20032;-36
2021/04/05 07:28:29;;;;;;;6.72;3.95;;;5.40;83.10;;;;;;5114718;28;20028;-38
2021/04/05 07:31:40;;;;;;;6.90;2.47;;;4.50;86.00;;;;;;5110353;28;20042;-36
2021/04/05 07:34:31;;;;;;;4.22;2.30;;;4.30;87.00;;;;;;5098557;28;20448;-37
2021/04/05 07:37:32;;;;;;;3.67;1.80;;;4.40;87.20;;;;;;5095402;28;20040;-37
2021/04/05 07:40:17;;;;;;;2.78;1.88;;;4.40;86.40;;;;;;5111374;28;20035;-38
2021/04/05 07:42:51;;;;;;;6.82;2.20;;;4.40;86.50;;;;;;5114485;28;20019;-38
2021/04/05 07:45:31;;;;;;;2.60;1.50;;;4.60;86.60;;;;;;5114560;28;20038;-37
2021/04/05 07:48:10;;;;;;;3.35;1.40;;;4.60;86.90;;;;;;5112935;28;20023;-37
2021/04/05 07:50:56;;;;;;;3.42;2.28;;;4.50;86.90;;;;;;5114938;28;20035;-36
2021/04/05 07:53:30;;;;;;;2.45;1.45;;;4.50;87.00;;;;;;5114642;28;20031;-37
2021/04/05 07:56:00;;;;;;;4.72;1.30;;;4.60;87.40;;;;;;5114403;28;20031;-37
2021/04/05 07:59:07;;;;;;;6.87;2.13;;;4.70;86.80;;;;;;5113650;28;20122;-37
2021/04/05 08:02:11;;;;;;;3.33;1.30;;;4.70;87.20;;;;;;5105210;28;20371;-38
2021/04/05 08:04:58;;;;;;;3.50;1.30;;;4.80;86.90;;;;;;5084452;28;20073;-37
2021/04/05 08:07:30;;;;;;;2.67;1.58;;;4.90;85.80;;;;;;5114938;28;20033;-38
2021/04/05 08:10:12;;;;;;;3.88;1.30;;;4.80;85.50;;;;;;5114050;27;20027;-37
2021/04/05 08:12:50;;;;;;;4.43;1.00;;;4.80;86.60;;;;;;5114739;28;20027;-38
2021/04/05 08:15:26;;;;;;;1.20;1.05;;;4.80;85.90;;;;;;5114556;28;20034;-37
2021/04/05 08:18:02;;;;;;;4.63;1.90;;;4.80;85.90;;;;;;5114057;28;20096;-36
2021/04/05 08:20:52;;;;;;;4.00;0.80;;;4.90;85.50;;;;;;5114200;28;20107;-36
2021/04/05 08:23:39;;;;;;;4.10;1.20;;;5.00;85.20;;;;;;5113905;28;20489;-37
2021/04/05 08:26:27;;;;;;;1.25;0.90;;;4.80;85.80;;;;;;5113788;28;20035;-37
2021/04/05 08:29:05;;;;;;;4.10;1.48;;;5.00;86.60;;;;;;5113914;28;20028;-36
2021/04/05 08:31:35;;;;;;;5.57;1.20;;;4.90;86.00;;;;;;5114292;28;20024;-37
2021/04/05 08:34:42;;;;;;;5.60;1.10;;;5.00;86.10;;;;;;5113849;28;20199;-36
2021/04/05 08:37:11;;;;;;;5.57;1.10;;;5.00;85.80;;;;;;5093384;28;20298;-36
2021/04/05 08:39:41;;;;;;;4.35;1.48;;;5.20;85.60;;;;;;5113998;28;20052;-36
2021/04/05 08:42:29;;;;;;;2.27;0.90;;;5.00;85.20;;;;;;5118768;28;20028;-37
2021/04/05 08:45:19;;;;;;;3.05;0.80;;;4.80;84.40;;;;;;5116706;28;20671;-37
2021/04/05 08:47:56;;;;;;;1.50;0.70;;;4.60;84.80;;;;;;5117190;28;20027;-37
2021/04/05 08:50:25;;;;;;;4.13;0.80;;;4.60;85.60;;;;;;5117710;27;20135;-38
2021/04/05 08:52:53;;;;;;;5.13;1.13;;;4.60;85.20;;;;;;5117994;28;20112;-42
2021/04/05 08:55:24;;;;;;;12.70;1.55;;;4.40;83.40;;;;;;5118241;28;20062;-36
2021/04/05 08:58:00;;;;;;;2.15;1.30;;;4.20;81.90;;;;;;5116598;28;20558;-38
2021/04/05 09:00:27;;;;;;;6.38;1.63;;;4.10;80.80;;;;;;5117607;28;20020;-38
2021/04/05 09:02:56;;;;;;;10.02;2.15;;;3.90;80.90;;;;;;5117582;28;20418;-38
2021/04/05 09:05:25;;;;;;;10.65;1.27;;;4.00;81.30;;;;;;5117702;28;20031;-37
2021/04/05 09:07:59;;;;;;;11.13;2.85;;;3.80;81.50;;;;;;5117664;28;20032;-37
2021/04/05 09:10:30;;;;;;;7.90;2.35;;;3.80;82.00;;;;;;5117813;28;20478;-37
2021/04/05 09:13:05;;;;;;;6.57;2.50;;;3.80;81.80;;;;;;5116289;28;20069;-37
2021/04/05 09:15:41;;;;;;;11.45;2.38;;;3.90;81.90;;;;;;5117535;28;20073;-36
2021/04/05 09:18:25;;;;;;;8.55;2.20;;;4.10;81.80;;;;;;5117479;28;20467;-38
2021/04/05 09:21:09;;;;;;;7.80;2.65;;;4.00;80.90;;;;;;5117326;27;20079;-38
2021/04/05 09:23:53;;;;;;;8.75;1.83;;;4.00;80.90;;;;;;5117456;28;20046;-36
2021/04/05 09:26:39;;;;;;;10.50;2.28;;;4.30;80.50;;;;;;5117256;28;20099;-38
2021/04/05 09:29:07;;;;;;;7.55;1.70;;;4.30;79.80;;;;;;5117689;28;20129;-37
2021/04/05 09:31:51;;;;;;;11.57;2.25;;;4.20;79.10;;;;;;5117506;28;20035;-37
2021/04/05 09:34:28;;;;;;;16.67;2.92;;;4.20;78.80;;;;;;5117141;28;20058;-38
2021/04/05 09:37:13;;;;;;;18.92;7.22;;;4.00;79.00;;;;;;5116201;28;20023;-37
2021/04/05 09:39:53;;;;;;;14.85;2.00;;;4.20;80.60;;;;;;5117522;28;20497;-38
2021/04/05 09:42:44;;;;;;;8.30;1.90;;;4.40;79.30;;;;;;5116945;28;20073;-37
2021/04/05 09:45:15;;;;;;;11.68;3.40;;;4.60;78.20;;;;;;5117105;28;20027;-36
2021/04/05 09:47:40;;;;;;;;;;;4.60;80.20;;;;;;5117323;28;20062;-37
2021/04/05 09:50:24;;;;;;;14.15;3.70;;;4.40;79.20;;;;;;5116820;28;19908;-36
2021/04/05 09:53:23;;;;;;;9.50;2.00;;;4.40;81.10;;;;;;5116773;28;20024;-37
2021/04/05 09:55:52;;;;;;;4.28;2.10;;;4.60;80.30;;;;;;5116658;28;20112;-37
2021/04/05 09:58:24;;;;;;;8.52;2.20;;;4.30;80.50;;;;;;5116679;28;20012;-37
2021/04/05 10:01:02;;;;;;;20.65;2.80;;;4.60;80.20;;;;;;5115137;28;20047;-36
2021/04/05 10:03:29;;;;;;;14.45;2.40;;;4.70;78.40;;;;;;5116848;28;20030;-37
2021/04/05 10:05:56;;;;;;;5.45;1.83;;;4.90;77.60;;;;;;5116228;28;20378;-38
2021/04/05 10:08:25;;;;;;;5.63;1.58;;;5.00;74.80;;;;;;5116693;28;20059;-37
2021/04/05 10:10:52;;;;;;;10.30;1.40;;;5.10;73.00;;;;;;5116137;28;20022;-36
2021/04/05 10:13:26;;;;;;;3.85;1.65;;;4.90;73.40;;;;;;5116176;28;20024;-37
2021/04/05 10:15:55;;;;;;;8.40;1.48;;;4.80;70.40;;;;;;5116436;27;20088;-37
2021/04/05 10:18:22;;;;;;;7.03;1.20;;;4.70;68.90;;;;;;5115930;27;20058;-36
2021/04/05 10:20:51;;;;;;;10.68;1.65;;;4.80;68.60;;;;;;5115860;28;20031;-37
2021/04/05 10:23:23;;;;;;;7.55;1.33;;;4.80;67.30;;;;;;5114363;28;20034;-37
2021/04/05 10:26:01;;;;;;;2.92;1.02;;;4.90;69.30;;;;;;5116492;28;20050;-37
2021/04/05 10:28:34;;;;;;;9.10;2.83;;;5.00;70.50;;;;;;5116277;28;20019;-37
2021/04/05 10:31:04;;;;;;;2.17;0.75;;;4.70;72.40;;;;;;5115997;28;20379;-40
2021/04/05 10:33:32;;;;;;;4.33;0.80;;;3.00;79.40;;;;;;5116455;28;20528;-37
2021/04/05 10:36:04;;;;;;;1.98;0.55;;;2.50;83.40;;;;;;5115909;28;20379;-37
2021/04/05 10:38:31;;;;;;;0.88;0.80;;;2.10;84.90;;;;;;5115833;28;20020;-37
2021/04/05 10:40:57;;;;;;;3.97;0.70;;;2.20;84.00;;;;;;5115568;28;20024;-36
2021/04/05 10:43:27;;;;;;;3.72;1.00;;;2.30;82.80;;;;;;5115464;28;20090;-36
2021/04/05 10:46:05;;;;;;;0.82;0.40;;;2.60;82.30;;;;;;5115616;28;20024;-36
2021/04/05 10:48:43;;;;;;;0.55;0.35;;;2.90;79.70;;;;;;5115392;28;20419;-36
2021/04/05 10:51:33;;;;;;;0.98;0.60;;;3.00;77.60;;;;;;5115595;28;20063;-36
2021/04/05 10:54:02;;;;;;;3.42;0.95;;;3.20;75.30;;;;;;5114399;28;20030;-37
2021/04/05 10:56:32;;;;;;;3.03;0.90;;;3.40;75.00;;;;;;5115733;28;20113;-37
2021/04/05 10:59:18;;;;;;;0.45;0.45;;;3.40;74.30;;;;;;5115759;28;20024;-37
2021/04/05 11:01:48;;;;;;;1.27;0.95;;;3.50;71.40;;;;;;5115444;28;20016;-37
2021/04/05 11:04:16;;;;;;;3.10;0.80;;;3.80;72.90;;;;;;5114411;28;20023;-36
2021/04/05 11:06:43;;;;;;;2.70;0.80;;;3.80;69.70;;;;;;5115114;28;20390;-38
2021/04/05 11:09:10;;;;;;;4.25;1.02;;;4.00;70.20;;;;;;5115205;28;20030;-36
2021/04/05 11:11:40;;;;;;;4.25;0.90;;;3.90;68.30;;;;;;5113752;28;20035;-37
2021/04/05 11:14:11;;;;;;;3.40;0.90;;;4.10;68.20;;;;;;5114866;28;20053;-37
2021/04/05 11:16:38;;;;;;;2.08;0.73;;;4.30;68.90;;;;;;5113868;28;20020;-36
2021/04/05 11:19:08;;;;;;;6.90;0.80;;;4.20;68.00;;;;;;5113701;28;20032;-37
2021/04/05 11:21:49;;;;;;;4.28;0.98;;;4.10;68.90;;;;;;5115082;28;20016;-37
2021/04/05 11:24:15;;;;;;;6.53;1.48;;;4.20;68.70;;;;;;5114982;28;20015;-37
2021/04/05 11:26:44;;;;;;;2.75;0.47;;;4.10;69.40;;;;;;5113721;28;20027;-37
2021/04/05 11:29:14;;;;;;;7.35;1.52;;;3.80;68.70;;;;;;5114884;28;20047;-36
2021/04/05 11:31:45;;;;;;;5.10;1.38;;;3.00;70.40;;;;;;5115106;28;20085;-37
2021/04/05 11:34:14;;;;;;;7.43;1.83;;;3.30;69.40;;;;;;5114665;28;20042;-36
2021/04/05 11:36:51;;;;;;;6.43;1.27;;;3.50;67.50;;;;;;5113900;28;20042;-36
2021/04/05 11:39:19;;;;;;;6.70;2.10;;;3.40;67.60;;;;;;5114390;28;20039;-37
2021/04/05 11:41:51;;;;;;;8.90;1.45;;;3.10;68.70;;;;;;5114724;28;20031;-37
2021/04/05 11:44:20;;;;;;;4.65;1.33;;;3.20;69.30;;;;;;5114763;27;20095;-37
2021/04/05 11:46:48;;;;;;;9.75;1.60;;;3.20;70.90;;;;;;5114590;27;20024;-37
2021/04/05 11:49:15;;;;;;;10.05;2.67;;;3.10;71.40;;;;;;5114189;28;20135;-36
2021/04/05 11:51:55;;;;;;;8.80;1.20;;;2.50;71.50;;;;;;5114451;28;20034;-37
2021/04/05 11:54:46;;;;;;;4.00;2.03;;;2.60;72.70;;;;;;5114857;28;20197;-36
2021/04/05 11:57:14;;;;;;;10.55;2.25;;;2.80;72.90;;;;;;5114623;28;20035;-38
2021/04/05 11:59:51;;;;;;;5.88;1.98;;;2.90;73.20;;;;;;5114488;28;20548;-37
2021/04/05 12:02:23;;;;;;;6.82;1.80;;;3.90;70.90;;;;;;5114199;28;20012;-37
2021/04/05 12:04:59;;;;;;;9.90;1.48;;;4.30;71.60;;;;;;5114107;28;20012;-37
2021/04/05 12:07:26;;;;;;;8.23;2.03;;;4.50;66.70;;;;;;5112713;28;20048;-38
2021/04/05 12:10:05;;;;;;;7.57;2.33;;;5.50;65.00;;;;;;5114254;28;20104;-37
2021/04/05 12:12:45;;;;;;;11.48;2.40;;;6.10;61.90;;;;;;5113971;28;20030;-36
2021/04/05 12:15:17;;;;;;;5.83;1.23;;;7.20;56.90;;;;;;5113986;28;20060;-36
2021/04/05 12:17:48;;;;;;;9.23;2.45;;;6.60;54.30;;;;;;5114200;28;20092;-37
2021/04/05 12:20:15;;;;;;;9.10;2.50;;;5.80;58.10;;;;;;5114009;28;20012;-37
2021/04/05 12:22:42;;;;;;;1.95;0.80;;;5.30;60.40;;;;;;5114095;28;20099;-37
2021/04/05 12:25:09;;;;;;;2.20;1.17;;;3.60;62.90;;;;;;5112382;28;20539;-36
2021/04/05 12:27:39;;;;;;;3.45;1.10;;;1.70;75.60;;;;;;5113811;28;20028;-36
2021/04/05 12:30:08;;;;;;;7.20;2.83;;;0.80;79.20;;;;;;5113605;28;20027;-36
2021/04/05 12:32:36;;;;;;;1.23;0.57;;;0.40;81.90;;;;;;5111555;28;20031;-36
2021/04/05 12:35:05;;;;;;;3.38;0.88;;;0.10;83.80;;;;;;5113270;28;20031;-37
2021/04/05 12:37:32;;;;;;;3.65;0.75;;;0.30;79.40;;;;;;5112132;28;20040;-36
2021/04/05 12:40:01;;;;;;;4.13;0.90;;;1.10;74.00;;;;;;5113616;28;20019;-36
2021/04/05 12:42:29;;;;;;;9.90;1.55;;;2.20;69.70;;;;;;5112026;28;20024;-37
2021/04/05 12:44:58;;;;;;;2.63;0.82;;;2.50;69.30;;;;;;5113582;28;20531;-38
2021/04/05 12:47:39;;;;;;;3.15;1.83;;;2.40;68.60;;;;;;5111939;28;20032;-37
2021/04/05 12:50:08;;;;;;;6.20;1.60;;;3.40;66.90;;;;;;5113430;28;20490;-37
2021/04/05 12:52:37;;;;;;;5.22;1.80;;;4.20;65.60;;;;;;5112530;28;20035;-37
2021/04/05 12:55:12;;;;;;;7.07;1.65;;;5.10;63.80;;;;;;5113639;28;20069;-38
2021/04/05 12:57:38;;;;;;;1.75;1.42;;;5.90;57.80;;;;;;5113895;28;20108;-38
2021/04/05 13:00:19;;;;;;;5.90;1.02;;;5.80;59.30;;;;;;5112251;28;20023;-38
2021/04/05 13:02:53;;;;;;;10.05;1.30;;;6.50;55.10;;;;;;5111860;28;20107;-36
2021/04/05 13:05:25;;;;;;;7.15;1.50;;;6.80;53.60;;;;;;5113375;28;20387;-38
2021/04/05 13:08:12;;;;;;;10.73;1.13;;;6.40;47.40;;;;;;5113781;28;20043;-36
2021/04/05 13:10:45;;;;;;;7.95;1.30;;;5.40;53.70;;;;;;5113940;28;20073;-38
2021/04/05 13:13:13;;;;;;;2.17;1.10;;;4.90;54.80;;;;;;5114133;28;20384;-38
2021/04/05 13:15:44;;;;;;;6.20;1.05;;;4.80;52.20;;;;;;5113225;28;20034;-37
2021/04/05 13:18:15;;;;;;;5.97;0.80;;;4.50;54.10;;;;;;5113412;28;20103;-36
2021/04/05 13:20:46;;;;;;;3.85;0.93;;;4.80;56.60;;;;;;5113245;28;20038;-37